Terminal Aerodrome Forecast
Issued by NWS Blacksburg, VA

Home | Current Version | Previous Version | Text Only | Print | Product List | Glossary On
Versions: 1 2 3 4 5 6 7 8 9 10 11 12 13 14 15 16 17 18 19 20 21 22 23 24 25 26 27 28 29 30 31 32 33 34 35 36 37 38 39
000
FTUS41 KRNK 020525
TAFLYH
TAF
KLYH 020525Z 0206/0306 02005KT P6SM -RA SCT007 OVC018
      TEMPO 0208/0212 4SM BR BKN005
     FM021600 04005KT P6SM BKN015 OVC025
     FM022000 08003KT P6SM VCSH SCT015 BKN035
     FM030300 09002KT 4SM BR SCT025 BKN040=

USA.gov is the U.S. government's official web portal to all federal, state and local government web resources and services.